sensor_id;sensor_type;location;lat;lon;timestamp;P1;durP1;ratioP1;P2;durP2;ratioP2
34146;SDS011;20423;49.448;9.056;2024-02-26T00:04:22;16;;;13.3;;
34146;SDS011;20423;49.448;9.056;2024-02-26T00:10:04;15.9;;;13.1;;
34146;SDS011;20423;49.448;9.056;2024-02-26T00:14:56;15.9;;;13.1;;
34146;SDS011;20423;49.448;9.056;2024-02-26T00:19:48;15.6;;;12.3;;
34146;SDS011;20423;49.448;9.056;2024-02-26T00:24:20;15.6;;;12.5;;
34146;SDS011;20423;49.448;9.056;2024-02-26T00:29:56;17.6;;;14.8;;
34146;SDS011;20423;49.448;9.056;2024-02-26T00:34:44;18.4;;;15.8;;
34146;SDS011;20423;49.448;9.056;2024-02-26T00:40:06;14.9;;;12.6;;
34146;SDS011;20423;49.448;9.056;2024-02-26T00:44:36;14.9;;;12.6;;
34146;SDS011;20423;49.448;9.056;2024-02-26T00:49:56;11.4;;;9.6;;
34146;SDS011;20423;49.448;9.056;2024-02-26T00:54:58;13.3;;;10.2;;
34146;SDS011;20423;49.448;9.056;2024-02-26T00:59:28;11.9;;;10.2;;
34146;SDS011;20423;49.448;9.056;2024-02-26T01:04:28;13.7;;;11.8;;
34146;SDS011;20423;49.448;9.056;2024-02-26T01:09:38;13.7;;;10.9;;
34146;SDS011;20423;49.448;9.056;2024-02-26T01:14:20;14.1;;;11.6;;
34146;SDS011;20423;49.448;9.056;2024-02-26T01:19:20;16;;;13.9;;
34146;SDS011;20423;49.448;9.056;2024-02-26T01:24:20;15;;;12.8;;
34146;SDS011;20423;49.448;9.056;2024-02-26T01:29:20;12.1;;;10.5;;
34146;SDS011;20423;49.448;9.056;2024-02-26T01:34:48;14.1;;;11.9;;
34146;SDS011;20423;49.448;9.056;2024-02-26T01:39:48;16.4;;;13;;
34146;SDS011;20423;49.448;9.056;2024-02-26T01:45:06;17.1;;;14.3;;
34146;SDS011;20423;49.448;9.056;2024-02-26T01:49:48;17.1;;;14.3;;
34146;SDS011;20423;49.448;9.056;2024-02-26T01:54:56;15.1;;;11.8;;
34146;SDS011;20423;49.448;9.056;2024-02-26T02:00:06;12.9;;;10.5;;
34146;SDS011;20423;49.448;9.056;2024-02-26T02:05:06;14.7;;;11.3;;
34146;SDS011;20423;49.448;9.056;2024-02-26T02:09:34;14.7;;;11.3;;
34146;SDS011;20423;49.448;9.056;2024-02-26T02:15:06;12.7;;;10.7;;
34146;SDS011;20423;49.448;9.056;2024-02-26T02:19:28;12.7;;;10.7;;
34146;SDS011;20423;49.448;9.056;2024-02-26T02:24:30;15;;;11.7;;
34146;SDS011;20423;49.448;9.056;2024-02-26T02:30:06;11.4;;;9;;
34146;SDS011;20423;49.448;9.056;2024-02-26T02:34:46;11.4;;;9;;
34146;SDS011;20423;49.448;9.056;2024-02-26T02:39:20;11;;;9;;
34146;SDS011;20423;49.448;9.056;2024-02-26T02:44:20;15.1;;;12.4;;
34146;SDS011;20423;49.448;9.056;2024-02-26T02:49:36;14.4;;;12.3;;
34146;SDS011;20423;49.448;9.056;2024-02-26T02:54:36;11.2;;;9.6;;
34146;SDS011;20423;49.448;9.056;2024-02-26T02:59:56;11.4;;;8.9;;
34146;SDS011;20423;49.448;9.056;2024-02-26T03:04:20;10.4;;;9.5;;
34146;SDS011;20423;49.448;9.056;2024-02-26T03:09:56;11.3;;;10;;
34146;SDS011;20423;49.448;9.056;2024-02-26T03:14:56;11;;;9.5;;
34146;SDS011;20423;49.448;9.056;2024-02-26T03:20:06;17.6;;;13.4;;
34146;SDS011;20423;49.448;9.056;2024-02-26T03:24:56;17.6;;;13.4;;
34146;SDS011;20423;49.448;9.056;2024-02-26T03:29:56;16;;;13.1;;
34146;SDS011;20423;49.448;9.056;2024-02-26T03:35:06;10.9;;;9.4;;
34146;SDS011;20423;49.448;9.056;2024-02-26T03:40:06;11.5;;;8.5;;
34146;SDS011;20423;49.448;9.056;2024-02-26T03:44:46;11.5;;;8.5;;
34146;SDS011;20423;49.448;9.056;2024-02-26T03:49:20;10.4;;;9;;
34146;SDS011;20423;49.448;9.056;2024-02-26T03:55:06;8.4;;;7.1;;
34146;SDS011;20423;49.448;9.056;2024-02-26T03:59:48;8.4;;;7.1;;
34146;SDS011;20423;49.448;9.056;2024-02-26T04:05:08;8.5;;;7.3;;
34146;SDS011;20423;49.448;9.056;2024-02-26T04:09:36;8.5;;;7.3;;
34146;SDS011;20423;49.448;9.056;2024-02-26T04:15:06;7.9;;;6;;
34146;SDS011;20423;49.448;9.056;2024-02-26T04:19:20;7.9;;;6;;
34146;SDS011;20423;49.448;9.056;2024-02-26T04:24:20;6.7;;;5.8;;
34146;SDS011;20423;49.448;9.056;2024-02-26T04:29:38;7.2;;;5.6;;
34146;SDS011;20423;49.448;9.056;2024-02-26T04:34:20;7.5;;;6.8;;
34146;SDS011;20423;49.448;9.056;2024-02-26T04:39:20;7.3;;;6.5;;
34146;SDS011;20423;49.448;9.056;2024-02-26T04:45:06;7.6;;;6.4;;
34146;SDS011;20423;49.448;9.056;2024-02-26T04:49:56;7.6;;;6.4;;
34146;SDS011;20423;49.448;9.056;2024-02-26T04:54:20;7.5;;;6.2;;
34146;SDS011;20423;49.448;9.056;2024-02-26T05:00:06;8.2;;;6.9;;
34146;SDS011;20423;49.448;9.056;2024-02-26T05:04:46;8.2;;;6.9;;
34146;SDS011;20423;49.448;9.056;2024-02-26T05:09:46;11.1;;;9.1;;
34146;SDS011;20423;49.448;9.056;2024-02-26T05:15:06;9.9;;;8.4;;
34146;SDS011;20423;49.448;9.056;2024-02-26T05:19:46;9.9;;;8.4;;
34146;SDS011;20423;49.448;9.056;2024-02-26T05:24:20;10.1;;;8.4;;
34146;SDS011;20423;49.448;9.056;2024-02-26T05:29:48;9.9;;;7.5;;
34146;SDS011;20423;49.448;9.056;2024-02-26T05:34:34;11.3;;;9.6;;
34146;SDS011;20423;49.448;9.056;2024-02-26T05:39:44;11.7;;;9.5;;
34146;SDS011;20423;49.448;9.056;2024-02-26T05:44:22;10.6;;;9;;
34146;SDS011;20423;49.448;9.056;2024-02-26T05:49:48;13.4;;;10.5;;
34146;SDS011;20423;49.448;9.056;2024-02-26T05:55:06;22;;;18.9;;
34146;SDS011;20423;49.448;9.056;2024-02-26T05:59:38;22;;;18.9;;
34146;SDS011;20423;49.448;9.056;2024-02-26T06:04:20;18;;;15.3;;
34146;SDS011;20423;49.448;9.056;2024-02-26T06:09:20;22;;;18;;
34146;SDS011;20423;49.448;9.056;2024-02-26T06:14:28;22.8;;;19.1;;
34146;SDS011;20423;49.448;9.056;2024-02-26T06:19:20;15.8;;;12.2;;
34146;SDS011;20423;49.448;9.056;2024-02-26T06:24:30;15.7;;;14;;
34146;SDS011;20423;49.448;9.056;2024-02-26T06:29:38;14.4;;;11.8;;
34146;SDS011;20423;49.448;9.056;2024-02-26T06:34:56;16.5;;;14;;
34146;SDS011;20423;49.448;9.056;2024-02-26T06:40:05;18.2;;;13.6;;
34146;SDS011;20423;49.448;9.056;2024-02-26T06:44:44;18.2;;;13.6;;
34146;SDS011;20423;49.448;9.056;2024-02-26T06:49:36;16.9;;;14.3;;
34146;SDS011;20423;49.448;9.056;2024-02-26T06:54:44;18.3;;;16.1;;
34146;SDS011;20423;49.448;9.056;2024-02-26T06:59:36;21.2;;;17.4;;
34146;SDS011;20423;49.448;9.056;2024-02-26T07:04:20;26.3;;;20.7;;
34146;SDS011;20423;49.448;9.056;2024-02-26T07:09:36;26.3;;;22;;
34146;SDS011;20423;49.448;9.056;2024-02-26T07:14:44;29;;;23.2;;
34146;SDS011;20423;49.448;9.056;2024-02-26T07:19:36;34.7;;;27.9;;
34146;SDS011;20423;49.448;9.056;2024-02-26T07:25:04;37.9;;;30.1;;
34146;SDS011;20423;49.448;9.056;2024-02-26T07:30:05;27.6;;;23;;
34146;SDS011;20423;49.448;9.056;2024-02-26T07:34:46;27.6;;;23;;
34146;SDS011;20423;49.448;9.056;2024-02-26T07:39:20;17.3;;;14.3;;
34146;SDS011;20423;49.448;9.056;2024-02-26T07:44:20;19.1;;;17.3;;
34146;SDS011;20423;49.448;9.056;2024-02-26T07:49:28;19.8;;;16.1;;
34146;SDS011;20423;49.448;9.056;2024-02-26T07:54:36;17.7;;;14.9;;
34146;SDS011;20423;49.448;9.056;2024-02-26T07:59:44;22.2;;;17.3;;
34146;SDS011;20423;49.448;9.056;2024-02-26T08:04:46;16.3;;;12.9;;
34146;SDS011;20423;49.448;9.056;2024-02-26T08:09:56;16.7;;;14.4;;
34146;SDS011;20423;49.448;9.056;2024-02-26T08:14:46;15.3;;;13.1;;
34146;SDS011;20423;49.448;9.056;2024-02-26T08:20:05;17.3;;;13.9;;
34146;SDS011;20423;49.448;9.056;2024-02-26T08:24:20;17.3;;;13.9;;
34146;SDS011;20423;49.448;9.056;2024-02-26T08:29:56;15.4;;;12;;
34146;SDS011;20423;49.448;9.056;2024-02-26T08:34:28;16;;;12.6;;
34146;SDS011;20423;49.448;9.056;2024-02-26T08:39:48;15.3;;;11.8;;
34146;SDS011;20423;49.448;9.056;2024-02-26T08:44:28;19.3;;;15.4;;
34146;SDS011;20423;49.448;9.056;2024-02-26T08:49:48;14.2;;;11.2;;
34146;SDS011;20423;49.448;9.056;2024-02-26T08:54:26;13.8;;;11.3;;
34146;SDS011;20423;49.448;9.056;2024-02-26T08:59:54;12.8;;;10.9;;
34146;SDS011;20423;49.448;9.056;2024-02-26T09:05:04;17.2;;;14.6;;
34146;SDS011;20423;49.448;9.056;2024-02-26T09:09:34;17.2;;;14.6;;
34146;SDS011;20423;49.448;9.056;2024-02-26T09:14:54;22.6;;;19.2;;
34146;SDS011;20423;49.448;9.056;2024-02-26T09:19:38;17.9;;;14.3;;
34146;SDS011;20423;49.448;9.056;2024-02-26T09:24:36;17;;;13.9;;
34146;SDS011;20423;49.448;9.056;2024-02-26T09:29:22;18;;;14.6;;
34146;SDS011;20423;49.448;9.056;2024-02-26T09:34:40;16.2;;;12.9;;
34146;SDS011;20423;49.448;9.056;2024-02-26T09:39:30;15.4;;;11.1;;
34146;SDS011;20423;49.448;9.056;2024-02-26T09:45:05;15;;;12.7;;
34146;SDS011;20423;49.448;9.056;2024-02-26T09:50:05;14.4;;;13;;
34146;SDS011;20423;49.448;9.056;2024-02-26T09:55:04;15.9;;;13.7;;
34146;SDS011;20423;49.448;9.056;2024-02-26T10:00:05;17.7;;;13.8;;
34146;SDS011;20423;49.448;9.056;2024-02-26T10:04:56;17.7;;;13.8;;
34146;SDS011;20423;49.448;9.056;2024-02-26T10:10:04;16.1;;;13.6;;
34146;SDS011;20423;49.448;9.056;2024-02-26T10:15:04;16.5;;;13.6;;
34146;SDS011;20423;49.448;9.056;2024-02-26T10:19:46;16.5;;;13.6;;
34146;SDS011;20423;49.448;9.056;2024-02-26T10:24:29;15.6;;;13.7;;
34146;SDS011;20423;49.448;9.056;2024-02-26T10:30:15;15.6;;;13.2;;
34146;SDS011;20423;49.448;9.056;2024-02-26T10:34:56;15.6;;;13.2;;
34146;SDS011;20423;49.448;9.056;2024-02-26T10:40:09;15.2;;;11.6;;
34146;SDS011;20423;49.448;9.056;2024-02-26T10:44:57;15.2;;;11.6;;
34146;SDS011;20423;49.448;9.056;2024-02-26T10:49:56;17.2;;;13.9;;
34146;SDS011;20423;49.448;9.056;2024-02-26T10:54:38;16.9;;;14.2;;
34146;SDS011;20423;49.448;9.056;2024-02-26T10:59:56;17.5;;;15.2;;
34146;SDS011;20423;49.448;9.056;2024-02-26T11:04:22;17.8;;;14.1;;
34146;SDS011;20423;49.448;9.056;2024-02-26T11:09:28;21.9;;;19.2;;
34146;SDS011;20423;49.448;9.056;2024-02-26T11:14:29;20.9;;;18.2;;
34146;SDS011;20423;49.448;9.056;2024-02-26T11:20:06;15.1;;;12.8;;
34146;SDS011;20423;49.448;9.056;2024-02-26T11:24:30;15.1;;;12.8;;
34146;SDS011;20423;49.448;9.056;2024-02-26T11:29:21;16.8;;;14.3;;
34146;SDS011;20423;49.448;9.056;2024-02-26T11:35:07;21;;;18.3;;
34146;SDS011;20423;49.448;9.056;2024-02-26T11:39:20;21;;;18.3;;
34146;SDS011;20423;49.448;9.056;2024-02-26T11:44:46;18.2;;;16.1;;
34146;SDS011;20423;49.448;9.056;2024-02-26T11:49:36;23.2;;;19.7;;
34146;SDS011;20423;49.448;9.056;2024-02-26T11:54:50;21.6;;;18.2;;
34146;SDS011;20423;49.448;9.056;2024-02-26T11:59:37;19.2;;;16.4;;
34146;SDS011;20423;49.448;9.056;2024-02-26T12:10:13;16.7;;;14.4;;
34146;SDS011;20423;49.448;9.056;2024-02-26T12:15:07;20.6;;;16.7;;
34146;SDS011;20423;49.448;9.056;2024-02-26T12:19:24;20.6;;;16.7;;
34146;SDS011;20423;49.448;9.056;2024-02-26T12:25:08;20.1;;;16.8;;
34146;SDS011;20423;49.448;9.056;2024-02-26T12:29:20;20.1;;;16.8;;
34146;SDS011;20423;49.448;9.056;2024-02-26T12:34:28;18.3;;;14.7;;
34146;SDS011;20423;49.448;9.056;2024-02-26T12:39:36;20.7;;;16.7;;
34146;SDS011;20423;49.448;9.056;2024-02-26T12:44:24;22.4;;;18;;
34146;SDS011;20423;49.448;9.056;2024-02-26T12:49:20;28.4;;;23.5;;
34146;SDS011;20423;49.448;9.056;2024-02-26T12:55:06;35.2;;;28.1;;
34146;SDS011;20423;49.448;9.056;2024-02-26T12:59:56;35.2;;;28.1;;
34146;SDS011;20423;49.448;9.056;2024-02-26T13:05:01;51.9;;;40.2;;
34146;SDS011;20423;49.448;9.056;2024-02-26T13:10:07;33.6;;;26.8;;
34146;SDS011;20423;49.448;9.056;2024-02-26T13:14:21;33.6;;;26.8;;
34146;SDS011;20423;49.448;9.056;2024-02-26T13:19:49;40.7;;;32.6;;
34146;SDS011;20423;49.448;9.056;2024-02-26T13:24:28;31.6;;;25.8;;
34146;SDS011;20423;49.448;9.056;2024-02-26T13:29:46;39.6;;;31.9;;
34146;SDS011;20423;49.448;9.056;2024-02-26T13:34:23;32.3;;;27;;
34146;SDS011;20423;49.448;9.056;2024-02-26T13:39:56;28.5;;;24.1;;
34146;SDS011;20423;49.448;9.056;2024-02-26T13:44:28;24.2;;;19.9;;
34146;SDS011;20423;49.448;9.056;2024-02-26T13:50:01;24;;;20.2;;
34146;SDS011;20423;49.448;9.056;2024-02-26T13:54:28;24.4;;;20.7;;
34146;SDS011;20423;49.448;9.056;2024-02-26T14:00:07;17.8;;;14.7;;
34146;SDS011;20423;49.448;9.056;2024-02-26T14:05:06;18.1;;;14.9;;
34146;SDS011;20423;49.448;9.056;2024-02-26T14:09:28;18.1;;;14.9;;
34146;SDS011;20423;49.448;9.056;2024-02-26T14:14:36;21;;;17.3;;
34146;SDS011;20423;49.448;9.056;2024-02-26T14:19:28;23.1;;;18.5;;
34146;SDS011;20423;49.448;9.056;2024-02-26T14:24:20;20.2;;;17;;
34146;SDS011;20423;49.448;9.056;2024-02-26T14:29:20;18.6;;;14.4;;
34146;SDS011;20423;49.448;9.056;2024-02-26T14:35:07;22.6;;;18.9;;
34146;SDS011;20423;49.448;9.056;2024-02-26T14:39:20;22.6;;;18.9;;
34146;SDS011;20423;49.448;9.056;2024-02-26T14:44:56;21.2;;;18.3;;
34146;SDS011;20423;49.448;9.056;2024-02-26T14:49:38;32.7;;;26.3;;
34146;SDS011;20423;49.448;9.056;2024-02-26T14:55:07;21.8;;;18;;
34146;SDS011;20423;49.448;9.056;2024-02-26T14:59:37;21.8;;;18;;
34146;SDS011;20423;49.448;9.056;2024-02-26T15:04:56;28.6;;;24;;
34146;SDS011;20423;49.448;9.056;2024-02-26T15:09:35;23.8;;;19.9;;
34146;SDS011;20423;49.448;9.056;2024-02-26T15:14:22;21.2;;;17.9;;
34146;SDS011;20423;49.448;9.056;2024-02-26T15:19:42;21.8;;;17.1;;
34146;SDS011;20423;49.448;9.056;2024-02-26T15:25:07;24.5;;;18.7;;
34146;SDS011;20423;49.448;9.056;2024-02-26T15:29:24;24.5;;;18.7;;
34146;SDS011;20423;49.448;9.056;2024-02-26T15:34:55;29.6;;;24.1;;
34146;SDS011;20423;49.448;9.056;2024-02-26T15:40:07;20.2;;;16.8;;
34146;SDS011;20423;49.448;9.056;2024-02-26T15:44:20;20.2;;;16.8;;
34146;SDS011;20423;49.448;9.056;2024-02-26T15:50:07;16.2;;;12.7;;
34146;SDS011;20423;49.448;9.056;2024-02-26T15:54:28;16.2;;;12.7;;
34146;SDS011;20423;49.448;9.056;2024-02-26T15:59:28;21;;;15.8;;
34146;SDS011;20423;49.448;9.056;2024-02-26T16:04:29;15.7;;;13.5;;
34146;SDS011;20423;49.448;9.056;2024-02-26T16:09:36;19.1;;;15.3;;
34146;SDS011;20423;49.448;9.056;2024-02-26T16:14:49;19.6;;;15.4;;
34146;SDS011;20423;49.448;9.056;2024-02-26T16:19:49;20.4;;;16.9;;
34146;SDS011;20423;49.448;9.056;2024-02-26T16:25:07;14.6;;;11.9;;
34146;SDS011;20423;49.448;9.056;2024-02-26T16:29:59;14.6;;;11.9;;
34146;SDS011;20423;49.448;9.056;2024-02-26T16:35:05;14.6;;;12.2;;
34146;SDS011;20423;49.448;9.056;2024-02-26T16:39:37;14.6;;;12.2;;
34146;SDS011;20423;49.448;9.056;2024-02-26T16:45:05;15.5;;;13.3;;
34146;SDS011;20423;49.448;9.056;2024-02-26T16:50:03;15.5;;;13.3;;
34146;SDS011;20423;49.448;9.056;2024-02-26T16:54:37;16;;;12.8;;
34146;SDS011;20423;49.448;9.056;2024-02-26T17:00:05;14.8;;;11.5;;
34146;SDS011;20423;49.448;9.056;2024-02-26T17:04:35;14.8;;;11.5;;
34146;SDS011;20423;49.448;9.056;2024-02-26T17:09:55;12.1;;;9.9;;
34146;SDS011;20423;49.448;9.056;2024-02-26T17:15:05;13.2;;;10.3;;
34146;SDS011;20423;49.448;9.056;2024-02-26T17:19:31;13.2;;;10.3;;
34146;SDS011;20423;49.448;9.056;2024-02-26T17:24:45;13.9;;;11.9;;
34146;SDS011;20423;49.448;9.056;2024-02-26T17:29:47;14.9;;;12.5;;
34146;SDS011;20423;49.448;9.056;2024-02-26T17:35:05;19.6;;;16.9;;
34146;SDS011;20423;49.448;9.056;2024-02-26T17:39:35;19.6;;;16.9;;
34146;SDS011;20423;49.448;9.056;2024-02-26T17:44:33;25.7;;;20.9;;
34146;SDS011;20423;49.448;9.056;2024-02-26T17:49:29;26.5;;;22.1;;
34146;SDS011;20423;49.448;9.056;2024-02-26T17:54:47;24;;;19.8;;
34146;SDS011;20423;49.448;9.056;2024-02-26T17:59:55;18.2;;;14.3;;
34146;SDS011;20423;49.448;9.056;2024-02-26T18:05:05;19.4;;;16.6;;
34146;SDS011;20423;49.448;9.056;2024-02-26T18:10:05;17.1;;;12.2;;
34146;SDS011;20423;49.448;9.056;2024-02-26T18:14:31;17.1;;;12.2;;
34146;SDS011;20423;49.448;9.056;2024-02-26T18:20:05;22.8;;;18.9;;
34146;SDS011;20423;49.448;9.056;2024-02-26T18:24:43;22.8;;;18.9;;
34146;SDS011;20423;49.448;9.056;2024-02-26T18:29:43;35.1;;;27.7;;
34146;SDS011;20423;49.448;9.056;2024-02-26T18:34:37;16.4;;;13.1;;
34146;SDS011;20423;49.448;9.056;2024-02-26T18:40:05;16.9;;;13.3;;
34146;SDS011;20423;49.448;9.056;2024-02-26T18:44:49;16.9;;;13.3;;
34146;SDS011;20423;49.448;9.056;2024-02-26T18:50:05;24;;;20.1;;
34146;SDS011;20423;49.448;9.056;2024-02-26T18:54:29;24;;;20.1;;
34146;SDS011;20423;49.448;9.056;2024-02-26T18:59:55;21.7;;;18.9;;
34146;SDS011;20423;49.448;9.056;2024-02-26T19:04:39;17.6;;;15.6;;
34146;SDS011;20423;49.448;9.056;2024-02-26T19:09:37;17.6;;;15;;
34146;SDS011;20423;49.448;9.056;2024-02-26T19:14:29;15.9;;;13.4;;
34146;SDS011;20423;49.448;9.056;2024-02-26T19:19:21;18.1;;;15.8;;
34146;SDS011;20423;49.448;9.056;2024-02-26T19:25:07;18.2;;;15.3;;
34146;SDS011;20423;49.448;9.056;2024-02-26T19:30:07;17.1;;;13.9;;
34146;SDS011;20423;49.448;9.056;2024-02-26T19:34:41;17.1;;;13.9;;
34146;SDS011;20423;49.448;9.056;2024-02-26T19:39:29;15.2;;;12.1;;
34146;SDS011;20423;49.448;9.056;2024-02-26T19:45:07;17.2;;;14.1;;
34146;SDS011;20423;49.448;9.056;2024-02-26T19:49:21;17.2;;;14.1;;
34146;SDS011;20423;49.448;9.056;2024-02-26T19:54:47;18;;;14.9;;
34146;SDS011;20423;49.448;9.056;2024-02-26T19:59:29;17.2;;;15;;
34146;SDS011;20423;49.448;9.056;2024-02-26T20:04:45;16.5;;;13.3;;
34146;SDS011;20423;49.448;9.056;2024-02-26T20:09:29;17.5;;;13.6;;
34146;SDS011;20423;49.448;9.056;2024-02-26T20:14:57;14.3;;;12.6;;
34146;SDS011;20423;49.448;9.056;2024-02-26T20:19:21;17.5;;;14.7;;
34146;SDS011;20423;49.448;9.056;2024-02-26T20:24:45;15.8;;;12.2;;
34146;SDS011;20423;49.448;9.056;2024-02-26T20:29:27;15.3;;;13.3;;
34146;SDS011;20423;49.448;9.056;2024-02-26T20:35:05;12.1;;;10.4;;
34146;SDS011;20423;49.448;9.056;2024-02-26T20:40:05;12;;;9.7;;
34146;SDS011;20423;49.448;9.056;2024-02-26T20:44:50;12;;;9.7;;
34146;SDS011;20423;49.448;9.056;2024-02-26T20:49:21;14.1;;;11.4;;
34146;SDS011;20423;49.448;9.056;2024-02-26T20:54:21;13.2;;;11.5;;
34146;SDS011;20423;49.448;9.056;2024-02-26T20:59:29;13.1;;;10.4;;
34146;SDS011;20423;49.448;9.056;2024-02-26T21:04:39;12.6;;;10.2;;
34146;SDS011;20423;49.448;9.056;2024-02-26T21:10:07;12;;;9.4;;
34146;SDS011;20423;49.448;9.056;2024-02-26T21:14:47;12;;;9.4;;
34146;SDS011;20423;49.448;9.056;2024-02-26T21:19:31;11.4;;;8.7;;
34146;SDS011;20423;49.448;9.056;2024-02-26T21:24:47;11.9;;;9.5;;
34146;SDS011;20423;49.448;9.056;2024-02-26T21:30:07;12;;;9.6;;
34146;SDS011;20423;49.448;9.056;2024-02-26T21:34:29;12;;;9.6;;
34146;SDS011;20423;49.448;9.056;2024-02-26T21:39:57;12.7;;;10.6;;
34146;SDS011;20423;49.448;9.056;2024-02-26T21:44:35;11.5;;;8.7;;
34146;SDS011;20423;49.448;9.056;2024-02-26T21:49:49;11.9;;;9.9;;
34146;SDS011;20423;49.448;9.056;2024-02-26T21:54:23;11.4;;;10.1;;
34146;SDS011;20423;49.448;9.056;2024-02-26T22:00:03;14.2;;;11.5;;
34146;SDS011;20423;49.448;9.056;2024-02-26T22:04:57;14.2;;;11.5;;
34146;SDS011;20423;49.448;9.056;2024-02-26T22:10:07;13.9;;;11.2;;
34146;SDS011;20423;49.448;9.056;2024-02-26T22:15:07;12.5;;;10.4;;
34146;SDS011;20423;49.448;9.056;2024-02-26T22:19:21;12.5;;;10.4;;
34146;SDS011;20423;49.448;9.056;2024-02-26T22:24:21;14.4;;;11.9;;
34146;SDS011;20423;49.448;9.056;2024-02-26T22:29:47;13.8;;;11.2;;
34146;SDS011;20423;49.448;9.056;2024-02-26T22:34:29;15.6;;;11.8;;
34146;SDS011;20423;49.448;9.056;2024-02-26T22:39:21;15.9;;;11.5;;
34146;SDS011;20423;49.448;9.056;2024-02-26T22:45:07;14.2;;;11;;
34146;SDS011;20423;49.448;9.056;2024-02-26T22:49:47;14.2;;;11;;
34146;SDS011;20423;49.448;9.056;2024-02-26T22:54:57;15;;;12;;
34146;SDS011;20423;49.448;9.056;2024-02-26T22:59:21;14.8;;;11.5;;
34146;SDS011;20423;49.448;9.056;2024-02-26T23:05:05;14.1;;;11.1;;
34146;SDS011;20423;49.448;9.056;2024-02-26T23:10:05;12.7;;;10;;
34146;SDS011;20423;49.448;9.056;2024-02-26T23:14:23;12.7;;;10;;
34146;SDS011;20423;49.448;9.056;2024-02-26T23:20:07;14.1;;;11.7;;
34146;SDS011;20423;49.448;9.056;2024-02-26T23:24:21;14.1;;;11.7;;
34146;SDS011;20423;49.448;9.056;2024-02-26T23:30:05;14.7;;;11;;
34146;SDS011;20423;49.448;9.056;2024-02-26T23:34:21;14.7;;;11;;
34146;SDS011;20423;49.448;9.056;2024-02-26T23:39:21;14;;;10.9;;
34146;SDS011;20423;49.448;9.056;2024-02-26T23:44:21;14;;;11.6;;
34146;SDS011;20423;49.448;9.056;2024-02-26T23:49:21;12.7;;;9.9;;
34146;SDS011;20423;49.448;9.056;2024-02-26T23:54:35;14.2;;;10.4;;
